Sunday, April 22, 2018, 1:49 PM EDT

KSBY, Salisbury-wicomico Cty Reg

Location: Salisbury, MD, United States Lat: 38.333
Local Time: 1:49 PM EDT (17:49 GMT) Lon: -75.5
Time Zone: US/Eastern Elev: 52 ft

Show me the last for .
Show Decoded

2018-04-22 12:54 METAR KSBY 221654Z VRB05G15KT 10SM CLR 17/03 A3039 RMK AO2 SLP294 T01670028 $ =
2018-04-22 11:54 METAR KSBY 221554Z 00000KT 10SM CLR 16/03 A3041 RMK AO2 SLP300 T01610028 $ =
2018-04-22 10:54 METAR KSBY 221454Z 00000KT 10SM CLR 14/06 A3043 RMK AO2 SLP305 T01440056 56002 $
                 =
2018-04-22 09:54 METAR KSBY 221354Z VRB03KT 10SM CLR 13/06 A3043 RMK AO2 SLP307 T01330061 $ =
2018-04-22 08:54 METAR KSBY 221254Z 03006KT 10SM CLR 11/07 A3042 RMK AO2 SLP304 T01110072 $ =
2018-04-22 07:54 METAR KSBY 221154Z 03003KT 10SM CLR 09/07 A3043 RMK AO2 SLP307 T00890067 10089
                 20028 52017 $ =
2018-04-22 06:54 METAR KSBY 221054Z 00000KT 10SM CLR 03/02 A3041 RMK AO2 SLP299 T00330022 $ =
2018-04-22 05:54 METAR KSBY 220954Z 00000KT 10SM CLR 04/02 A3041 RMK AO2 SLP298 T00390022 $ =
2018-04-22 04:54 METAR KSBY 220854Z AUTO 00000KT 10SM CLR 06/04 A3038 RMK AO2 SLP290 T00610044
                 56004 $ =
2018-04-22 03:54 METAR KSBY 220754Z AUTO 00000KT 10SM CLR 06/05 A3038 RMK AO2 SLP291 T00610050 $
                 =
2018-04-22 02:54 METAR KSBY 220654Z AUTO 19003KT 10SM CLR 07/05 A3039 RMK AO2 SLP292 T00670050 $
                 =
2018-04-22 01:54 METAR KSBY 220554Z AUTO 00000KT 10SM CLR 06/04 A3039 RMK AO2 SLP294 T00610039
                 10111 20044 50003 $ =
2018-04-22 00:54 METAR KSBY 220454Z AUTO 00000KT 10SM CLR 05/03 A3040 RMK AO2 SLP295 T00500033
                 401561006 $ =
2018-04-21 23:54 METAR KSBY 220354Z AUTO 00000KT 10SM CLR 07/03 A3038 RMK AO2 SLP291 T00670033 $
                 =
2018-04-21 22:54 METAR KSBY 220254Z AUTO 00000KT 10SM CLR 06/03 A3039 RMK AO2 SLP291 T00610033
                 50007 $ =
2018-04-21 21:54 METAR KSBY 220154Z 12003KT 10SM CLR 07/03 A3039 RMK AO2 SLP292 T00670033 $ =
2018-04-21 20:54 METAR KSBY 220054Z 30005KT 10SM CLR 08/04 A3038 RMK AO2 SLP289 T00780039 $ =
2018-04-21 19:54 METAR KSBY 212354Z 25004KT 10SM CLR 11/00 A3036 RMK AO2 SLP284 T01110000 10156
                 20106 53005 =
2018-04-21 18:54 METAR KSBY 212254Z 25005KT 10SM CLR 13/00 A3035 RMK AO2 SLP280 T01280000 =
2018-04-21 17:54 METAR KSBY 212154Z 27005KT 10SM CLR 14/M03 A3035 RMK AO2 SLP280 T01441028 =
2018-04-21 16:54 METAR KSBY 212054Z 27006KT 10SM CLR 16/M01 A3035 RMK AO2 SLP279 T01561011 56018
                 =
2018-04-21 15:54 METAR KSBY 211954Z VRB03KT 10SM CLR 14/M03 A3036 RMK AO2 SLP282 T01441033 =
2018-04-21 14:54 METAR KSBY 211854Z 31004KT 10SM CLR 14/M03 A3038 RMK AO2 SLP289 T01391028 =
2018-04-21 13:54 METAR KSBY 211754Z 35004KT 10SM CLR 13/M02 A3040 RMK AO2 SLP297 T01331017 10144
                 20044 58024 =

Support USWX by starting your Amazon purchase here.